This is the latest recevied weather packets stored in our database for station/object LRBM. If no packets are shown the sender has not sent any weather packets the latest 10 day(s).
| Time | Temp. | Humidity | Pressure | Rain* | Wind** | Luminosity | Snow |
|---|---|---|---|---|---|---|---|
| 1777690115 | 2.78° C | 87% | 1023 hPa | - | - | - | - |
| 1777689215 | 2.78° C | 87% | 1023 hPa | - | - | - | - |
| 1777688316 | 2.78° C | 87% | 1023 hPa | - | - | - | - |
| 1777670315 | 7.78° C | 57% | 1024 hPa | - | - | - | - |
| 1777669416 | 7.78° C | 57% | 1024 hPa | - | - | - | - |
| 1777668515 | 8.89° C | 50% | 1024 hPa | - | - | - | - |
| 1777666716 | 10° C | 47% | 1023 hPa | - | - | - | - |
| 1777659516 | 12.22° C | 44% | 1023 hPa | - | - | - | - |
| 1777656815 | 12.22° C | 41% | 1023 hPa | - | - | - | - |
| 1777655940 | 12.78° C | 36% | 1023 hPa | - | - | - | - |
| 1777653215 | 13.89° C | 33% | 1023 hPa | - | - | - | - |
| 1777652315 | 15° C | 29% | 1023 hPa | - | - | - | - |
| 1777651416 | 15° C | 29% | 1023 hPa | - | - | - | - |
| 1777649615 | 16.11° C | 27% | 1023 hPa | - | - | - | - |
| 1777648716 | 16.11° C | 27% | 1023 hPa | - | - | - | - |
| 1777647815 | 16.11° C | 27% | 1023 hPa | - | - | - | - |
| 1777646095 | 16.11° C | 25% | 1023 hPa | - | - | - | - |
| 1777645112 | 17.22° C | 25% | 1023 hPa | - | - | - | - |
| 1777644215 | 17.22° C | 25% | 1023 hPa | - | - | - | - |
| 1777642416 | 17.22° C | 25% | 1023 hPa | - | - | - | - |
| 1777641516 | 16.11° C | 27% | 1023 hPa | - | - | - | - |
| 1777638815 | 16.11° C | 27% | 1024 hPa | - | - | - | - |
| 1777637931 | 15° C | 27% | 1024 hPa | - | - | - | - |
| 1777637016 | 15° C | 27% | 1024 hPa | - | - | - | - |
| 1777636115 | 15° C | 29% | 1024 hPa | - | - | - | - |
* Rain since midnight (hover to see other rain measurements)
** Current wind speed in m/s (hover to see current wind gust speed)